Time;durP1;ratioP1;P1;durP2;ratioP2;P2;SDS_P1;SDS_P2;PMS_P1;PMS_P2;Temp;Humidity;BMP_temperature;BMP_pressure;BME280_temperature;BME280_humidity;BME280_pressure;Samples;Min_cycle;Max_cycle;Signal;HPM_P1;HPM_P2
2021/07/21 00:00:51;;;;;;;10.68;7.13;;;12.60;99.90;;;13.75;93.72;101170.66;6255904;22;20035;-89
2021/07/21 00:03:20;;;;;;;9.13;6.13;;;12.50;99.90;;;13.71;93.85;101170.59;6254977;22;20011;-86
2021/07/21 00:05:46;;;;;;;12.15;7.50;;;12.50;99.90;;;13.69;94.01;101169.34;6255970;22;20508;-88
2021/07/21 00:08:12;;;;;;;12.95;6.63;;;12.50;99.90;;;13.66;94.29;101161.63;6253240;22;20011;-87
2021/07/21 00:10:39;;;;;;;11.05;7.45;;;12.50;99.90;;;13.64;94.68;101158.41;6254190;22;20004;-90
2021/07/21 00:16:12;;;;;;;10.85;7.32;;;12.40;99.90;;;13.64;94.85;101159.22;6282291;22;20484;-88
2021/07/21 00:21:12;;;;;;;11.13;7.30;;;12.40;99.90;;;13.68;94.59;101164.88;6292821;22;20091;-88
2021/07/21 00:23:39;;;;;;;11.93;7.10;;;12.40;99.90;;;13.67;94.63;101166.09;6254901;22;20062;-86
2021/07/21 00:26:07;;;;;;;12.30;6.90;;;12.40;99.90;;;13.68;94.79;101160.09;6283017;22;20003;-87
2021/07/21 00:28:41;;;;;;;10.18;7.10;;;12.40;99.90;;;13.68;94.50;101162.06;6254628;22;20014;-85
2021/07/21 00:31:15;;;;;;;12.73;7.18;;;12.50;99.90;;;13.66;94.46;101161.63;6254151;22;20008;-87
2021/07/21 00:33:44;;;;;;;12.50;7.25;;;12.40;99.90;;;13.65;94.78;101169.25;6254807;22;20008;-85
2021/07/21 00:36:15;;;;;;;14.95;6.97;;;12.40;99.90;;;13.58;94.92;101159.88;6262931;22;20061;-86
2021/07/21 00:38:41;;;;;;;10.13;7.35;;;12.30;99.90;;;13.55;95.58;101166.22;6266463;22;20007;-86
2021/07/21 00:41:07;;;;;;;12.93;7.82;;;12.40;99.90;;;13.51;95.69;101154.91;6256692;22;20015;-87
2021/07/21 00:43:33;;;;;;;14.52;8.07;;;12.30;99.90;;;13.49;95.73;101150.81;6256805;22;20072;-92
2021/07/21 00:46:00;;;;;;;13.88;6.95;;;12.20;99.90;;;13.43;96.00;101164.31;6257710;22;20103;-89
2021/07/21 00:48:26;;;;;;;14.65;7.70;;;12.20;99.90;;;13.40;96.04;101153.81;6256613;22;20007;-89
2021/07/21 00:50:54;;;;;;;11.88;7.32;;;12.20;99.90;;;13.36;95.98;101147.31;6254912;22;20043;-87
2021/07/21 00:53:22;;;;;;;11.98;7.95;;;12.10;99.90;;;13.33;96.38;101150.03;6254120;22;20008;-86
2021/07/21 00:55:51;;;;;;;11.55;7.28;;;12.20;99.90;;;13.34;96.36;101152.50;6254051;22;20094;-87
2021/07/21 00:58:17;;;;;;;10.75;6.72;;;12.10;99.90;;;13.32;96.42;101146.44;6253525;22;20090;-88
2021/07/21 01:00:43;;;;;;;15.05;8.40;;;12.10;99.90;;;13.33;96.75;101138.81;6253814;22;20008;-88
2021/07/21 01:03:10;;;;;;;14.20;8.60;;;12.10;99.90;;;13.33;96.84;101144.41;6254148;22;20007;-89
2021/07/21 01:05:43;;;;;;;13.60;6.97;;;12.10;99.90;;;13.33;96.89;101147.22;6254024;22;20004;-87
2021/07/21 01:08:14;;;;;;;10.77;7.30;;;12.10;99.90;;;13.30;96.98;101148.78;6254137;22;20003;-90
2021/07/21 01:11:05;;;;;;;13.10;6.75;;;12.10;99.90;;;13.30;97.34;101147.97;6254407;22;20065;-87
2021/07/21 01:14:18;;;;;;;13.23;7.47;;;12.10;99.90;;;13.28;97.45;101144.72;6254067;22;20004;-89
2021/07/21 01:17:13;;;;;;;14.60;8.20;;;12.00;99.90;;;13.22;96.76;101146.19;6253813;22;20008;-87
2021/07/21 01:20:09;;;;;;;11.30;6.30;;;12.00;99.90;;;13.18;96.91;101163.72;6253996;22;20138;-89
2021/07/21 01:22:47;;;;;;;12.50;8.27;;;12.00;99.90;;;13.18;97.15;101152.50;6253504;22;20008;-87
2021/07/21 01:26:03;;;;;;;10.60;7.15;;;12.00;99.90;;;13.16;97.09;101159.66;6254345;22;20010;-89
2021/07/21 01:28:32;;;;;;;11.30;7.63;;;11.90;99.90;;;13.10;97.22;101147.88;6252724;22;20088;-88
2021/07/21 01:31:09;;;;;;;14.63;7.32;;;11.80;99.90;;;13.07;97.78;101148.59;6254132;22;20610;-88
2021/07/21 01:33:39;;;;;;;13.13;7.53;;;11.90;99.90;;;13.06;97.98;101144.19;6254415;22;20487;-89
2021/07/21 01:36:25;;;;;;;11.43;7.07;;;11.90;99.90;;;13.09;97.98;101148.28;6254402;22;20015;-89
2021/07/21 01:39:04;;;;;;;13.93;8.10;;;11.90;99.90;;;13.12;97.95;101153.97;6254408;22;20086;-86
2021/07/21 01:41:55;;;;;;;13.55;7.25;;;11.90;99.90;;;13.15;97.89;101147.63;6254208;22;20441;-90
2021/07/21 01:44:26;;;;;;;10.35;6.72;;;11.90;99.90;;;13.14;97.61;101146.00;6254214;22;20452;-90
2021/07/21 01:46:59;;;;;;;13.70;7.53;;;11.90;99.90;;;13.10;97.75;101149.88;6252490;22;20007;-89
2021/07/21 01:49:33;;;;;;;10.23;6.68;;;11.90;99.90;;;13.05;97.81;101150.13;6253808;22;20012;-90
2021/07/21 01:52:08;;;;;;;11.18;7.00;;;11.80;99.90;;;12.96;97.94;101152.31;6254300;22;20034;-88
2021/07/21 01:54:39;;;;;;;11.23;7.60;;;11.70;99.90;;;12.88;97.85;101145.69;6253732;22;20061;-87
2021/07/21 01:57:12;;;;;;;12.13;7.25;;;11.70;99.90;;;12.82;97.78;101149.97;6254150;22;20007;-89
2021/07/21 01:59:45;;;;;;;12.35;7.65;;;11.60;99.90;;;12.82;98.32;101143.53;6254658;22;20019;-90
2021/07/21 02:02:14;;;;;;;16.45;8.20;;;11.60;99.90;;;12.83;98.26;101145.97;6252309;22;20011;-89
2021/07/21 02:04:42;;;;;;;11.27;7.50;;;11.60;99.90;;;12.82;98.25;101144.34;6253954;22;20030;-89
2021/07/21 02:07:11;;;;;;;11.40;7.55;;;11.70;99.90;;;12.83;98.18;101148.78;6254685;22;20034;-90
2021/07/21 02:09:41;;;;;;;12.05;7.88;;;11.60;99.90;;;12.80;98.55;101149.50;6254860;22;20000;-90
2021/07/21 02:12:08;;;;;;;13.75;8.95;;;11.60;99.90;;;12.76;98.34;101143.00;6254746;22;20015;-89
2021/07/21 02:14:35;;;;;;;12.65;7.65;;;11.50;99.90;;;12.77;98.43;101149.41;6255023;22;20008;-88
2021/07/21 02:17:05;;;;;;;12.75;7.85;;;11.60;99.90;;;12.79;98.51;101147.06;6255226;22;20010;-91
2021/07/21 02:19:32;;;;;;;12.65;8.35;;;11.50;99.90;;;12.80;98.56;101157.09;6255010;22;20003;-90
2021/07/21 02:21:59;;;;;;;14.73;8.82;;;11.60;99.90;;;12.79;98.65;101153.47;6282540;22;20051;-88
2021/07/21 02:24:30;;;;;;;11.50;7.50;;;11.60;99.90;;;12.79;98.37;101159.09;6282988;22;20334;-87
2021/07/21 02:26:58;;;;;;;14.73;7.68;;;11.60;99.90;;;12.79;98.47;101155.47;6255352;22;20011;-90
2021/07/21 02:29:26;;;;;;;13.50;8.45;;;11.50;99.90;;;12.76;97.99;101159.00;6255249;22;20007;-89
2021/07/21 02:32:23;;;;;;;10.07;7.47;;;11.50;99.90;;;12.71;98.40;101165.69;6256548;22;20003;-88
2021/07/21 02:34:49;;;;;;;;;;;11.50;99.90;;;12.73;98.55;101157.72;6256387;22;20003;-89
2021/07/21 02:37:19;;;;;;;13.43;7.32;;;11.50;99.90;;;12.75;98.16;101157.38;6255069;22;19910;-89
2021/07/21 02:39:49;;;;;;;12.57;7.40;;;11.60;99.90;;;12.72;98.01;101156.09;6256558;22;20019;-90
2021/07/21 02:42:20;;;;;;;13.25;8.00;;;11.50;99.90;;;12.66;98.11;101163.97;6255169;22;20039;-88
2021/07/21 02:44:52;;;;;;;11.68;7.55;;;11.50;99.90;;;12.65;97.80;101159.53;6256454;22;20000;-90
2021/07/21 02:47:20;;;;;;;12.68;7.95;;;11.40;99.90;;;12.65;98.27;101158.69;6281481;22;20007;-87
2021/07/21 02:49:49;;;;;;;14.02;8.50;;;11.40;99.90;;;12.66;98.07;101160.34;6283534;22;20063;-85
2021/07/21 02:52:57;;;;;;;11.50;8.15;;;11.50;99.90;;;12.68;98.67;101161.59;6264084;22;20043;-85
2021/07/21 02:55:38;;;;;;;13.90;8.75;;;11.50;99.90;;;12.70;98.52;101161.25;6263074;22;20377;-89
2021/07/21 02:58:09;;;;;;;12.85;8.55;;;11.50;99.90;;;12.73;98.48;101154.09;6255664;22;20010;-89
2021/07/21 03:00:35;;;;;;;13.18;8.68;;;11.50;99.90;;;12.72;98.64;101160.88;6255840;22;19996;-90
2021/07/21 03:03:10;;;;;;;15.73;8.68;;;11.50;99.90;;;12.75;98.76;101157.38;6256543;22;20031;-90
2021/07/21 03:05:40;;;;;;;14.93;8.85;;;11.50;99.90;;;12.77;98.48;101169.03;6267079;22;20019;-86
2021/07/21 03:08:06;;;;;;;13.43;8.68;;;11.50;99.90;;;12.70;98.44;101164.06;6272541;22;20003;-86
2021/07/21 03:10:33;;;;;;;20.45;10.38;;;11.50;99.90;;;12.70;99.14;101166.84;6271701;22;20035;-89
2021/07/21 03:13:20;;;;;;;15.23;10.27;;;11.50;99.90;;;12.79;99.18;101161.88;6269295;22;20054;-85
2021/07/21 03:15:49;;;;;;;18.38;10.65;;;11.60;99.90;;;12.84;98.98;101164.44;6273089;22;20015;-87
2021/07/21 03:18:28;;;;;;;14.10;9.23;;;11.60;99.90;;;12.86;98.59;101161.25;6254355;22;20456;-88
2021/07/21 03:20:57;;;;;;;16.40;10.02;;;11.70;99.90;;;12.88;99.42;101156.91;6254500;22;20525;-89
2021/07/21 03:23:30;;;;;;;11.77;8.45;;;11.70;99.90;;;12.94;98.46;101171.50;6254321;22;20338;-88
2021/07/21 03:26:05;;;;;;;13.05;8.40;;;11.70;99.90;;;12.92;98.17;101169.03;6254082;22;20031;-87
2021/07/21 03:28:34;;;;;;;15.43;8.88;;;11.70;99.90;;;12.89;98.03;101163.34;6254467;22;20006;-88
2021/07/21 03:31:02;;;;;;;12.75;8.20;;;11.60;99.90;;;12.85;97.93;101166.03;6256248;22;20011;-88
2021/07/21 03:33:29;;;;;;;13.25;8.15;;;11.60;99.90;;;12.79;98.30;101169.47;6255802;22;20046;-89
2021/07/21 03:36:04;;;;;;;13.65;8.15;;;11.60;99.90;;;12.73;98.12;101177.34;6256635;22;20014;-90
2021/07/21 03:38:36;;;;;;;13.83;8.07;;;11.50;99.90;;;12.66;98.61;101177.16;6256927;22;20062;-87
2021/07/21 03:41:02;;;;;;;10.27;7.20;;;11.50;99.90;;;12.57;98.22;101177.34;6283979;22;20015;-88
2021/07/21 03:43:31;;;;;;;11.80;7.80;;;11.40;99.90;;;12.49;97.87;101183.91;6256300;22;20007;-87
2021/07/21 03:46:01;;;;;;;12.95;7.65;;;11.20;99.90;;;12.40;97.99;101188.84;6256730;22;20027;-90
2021/07/21 03:48:28;;;;;;;11.15;8.02;;;11.20;99.90;;;12.36;98.81;101189.94;6258445;22;20004;-88
2021/07/21 03:51:00;;;;;;;18.50;8.75;;;11.20;99.90;;;12.35;98.96;101189.13;6256839;22;20008;-91
2021/07/21 03:53:28;;;;;;;13.55;8.88;;;11.20;99.90;;;12.34;99.22;101195.06;6283491;22;20004;-90
2021/07/21 03:55:59;;;;;;;12.73;9.02;;;11.10;99.90;;;12.34;99.04;101195.88;6257462;22;20509;-89
2021/07/21 03:58:25;;;;;;;16.45;10.23;;;11.10;99.90;;;12.34;99.07;101195.06;6257700;22;20365;-89
2021/07/21 04:00:58;;;;;;;11.73;8.68;;;11.10;99.90;;;12.35;99.60;101205.94;6255363;22;20007;-88
2021/07/21 04:03:26;;;;;;;12.63;8.93;;;11.10;99.90;;;12.37;99.28;101209.19;6254153;22;20004;-86
2021/07/21 04:05:55;;;;;;;15.77;8.75;;;11.10;99.90;;;12.35;99.54;101202.31;6253798;22;20011;-88
2021/07/21 04:08:25;;;;;;;14.90;9.48;;;11.20;99.90;;;12.40;99.64;101210.44;6255052;22;20007;-91
2021/07/21 04:10:54;;;;;;;15.82;9.05;;;11.20;99.90;;;12.41;99.69;101210.09;6253753;22;20003;-87
2021/07/21 04:13:22;;;;;;;14.15;9.13;;;11.20;99.90;;;12.42;99.33;101214.53;6280567;22;20019;-87
2021/07/21 04:15:51;;;;;;;15.35;9.05;;;11.20;99.90;;;12.47;99.56;101213.44;6253032;22;20182;-87
2021/07/21 04:18:23;;;;;;;13.70;8.77;;;11.30;99.90;;;12.51;99.31;101211.56;6281042;22;20008;-86
2021/07/21 04:20:51;;;;;;;11.30;7.97;;;11.30;99.90;;;12.51;99.17;101215.19;6253565;22;20463;-87
2021/07/21 04:23:21;;;;;;;15.05;8.38;;;11.20;99.90;;;12.52;99.19;101218.81;6253818;22;20086;-87
2021/07/21 04:25:52;;;;;;;12.43;7.45;;;11.30;99.90;;;12.52;99.18;101222.41;6253583;22;20008;-87
2021/07/21 04:28:21;;;;;;;13.23;7.93;;;11.20;99.90;;;12.57;98.93;101221.34;6253811;22;20032;-86
2021/07/21 04:30:48;;;;;;;10.68;8.25;;;11.30;99.90;;;12.61;98.85;101213.84;6253944;22;20031;-87
2021/07/21 04:33:14;;;;;;;11.95;8.18;;;11.30;99.90;;;12.63;98.80;101215.13;6254248;22;20015;-87
2021/07/21 04:35:54;;;;;;;14.15;7.75;;;11.40;99.90;;;12.67;98.89;101216.03;6254477;22;20341;-86
2021/07/21 04:38:20;;;;;;;16.42;8.93;;;11.40;99.90;;;12.72;98.49;101212.16;6281816;22;20453;-85
2021/07/21 04:40:56;;;;;;;14.68;8.70;;;11.50;99.90;;;12.77;98.63;101225.91;6282075;22;20006;-87
2021/07/21 04:43:27;;;;;;;20.63;10.43;;;11.50;99.90;;;12.83;98.37;101226.47;6254750;22;20050;-86
2021/07/21 04:45:54;;;;;;;14.77;8.52;;;11.50;99.90;;;12.88;98.32;101229.00;6281682;22;20050;-87
2021/07/21 16:50:11;;;;;;;9.55;6.25;;;24.10;75.70;;;25.95;44.27;101195.31;6275288;22;20019;-87
2021/07/21 16:52:40;;;;;;;10.45;6.88;;;24.10;79.20;;;25.83;43.74;101192.41;6286220;22;20055;-87
2021/07/21 16:55:16;;;;;;;10.23;6.60;;;24.00;76.90;;;25.85;44.35;101184.19;6285284;22;20003;-85
2021/07/21 16:57:46;;;;;;;10.35;6.68;;;24.00;78.70;;;25.77;44.54;101188.47;6313120;22;20010;-88
2021/07/21 17:00:29;;;;;;;8.20;6.45;;;23.90;79.30;;;25.66;44.89;101191.63;6311492;22;20011;-87
2021/07/21 17:02:58;;;;;;;8.98;6.50;;;23.80;80.30;;;25.49;45.58;101192.88;6284076;22;20068;-87
2021/07/21 17:05:29;;;;;;;8.43;5.72;;;23.70;81.50;;;25.38;45.70;101193.13;6285035;22;19999;-88
2021/07/21 17:07:57;;;;;;;9.05;6.53;;;23.60;81.70;;;25.22;45.86;101189.47;6311215;22;20000;-87
2021/07/21 17:10:24;;;;;;;11.02;7.70;;;23.50;81.30;;;25.08;45.44;101190.59;6286011;22;20004;-89
2021/07/21 17:12:54;;;;;;;9.15;6.82;;;23.40;81.40;;;25.01;45.93;101190.78;6285770;22;20011;-89
2021/07/21 17:15:21;;;;;;;7.57;5.80;;;23.30;83.20;;;24.90;46.16;101191.03;6288748;22;20007;-88
2021/07/21 17:17:47;;;;;;;8.32;6.32;;;23.20;83.00;;;24.80;46.49;101197.78;6285709;22;20011;-89
2021/07/21 17:20:41;;;;;;;8.70;6.35;;;23.10;83.60;;;24.71;47.33;101196.75;6285325;22;20317;-89
2021/07/21 17:23:10;;;;;;;10.48;7.10;;;23.00;85.90;;;24.61;46.21;101192.91;6290622;22;20018;-88
2021/07/21 17:25:36;;;;;;;9.15;5.80;;;22.90;83.00;;;24.50;45.96;101193.13;6316057;22;19996;-87
2021/07/21 17:28:10;;;;;;;9.30;6.25;;;22.80;81.80;;;24.37;46.45;101192.16;6289434;22;20003;-90
2021/07/21 17:30:37;;;;;;;8.00;6.22;;;22.70;83.60;;;24.27;46.64;101193.22;6289147;22;20053;-86
2021/07/21 17:33:03;;;;;;;9.40;6.78;;;22.60;83.90;;;24.16;46.54;101189.78;6288262;22;20011;-87
2021/07/21 17:35:32;;;;;;;9.75;6.80;;;22.60;84.90;;;24.10;47.18;101192.31;6286382;22;20007;-87
2021/07/21 17:38:01;;;;;;;12.38;8.60;;;22.50;85.30;;;24.02;47.19;101187.16;6314430;22;20007;-87
2021/07/21 17:40:31;;;;;;;13.80;7.22;;;22.40;85.00;;;23.91;47.41;101195.13;6310604;22;20015;-88
2021/07/21 17:42:57;;;;;;;9.65;6.90;;;22.30;87.60;;;23.79;47.68;101195.78;6284370;22;20014;-89
2021/07/21 17:45:28;;;;;;;11.10;7.50;;;22.20;87.00;;;23.73;47.86;101198.31;6285651;22;20053;-88
2021/07/21 17:47:58;;;;;;;9.50;6.80;;;22.20;87.80;;;23.71;48.49;101191.44;6283210;22;20010;-86
2021/07/21 17:50:25;;;;;;;10.98;7.60;;;22.20;89.20;;;23.65;48.60;101196.84;6313976;22;20003;-87
2021/07/21 17:52:51;;;;;;;8.95;6.43;;;22.10;89.90;;;23.56;48.96;101190.88;6288158;22;20014;-88
2021/07/21 18:00:59;;;;;;;10.80;7.15;;;21.90;90.80;;;23.33;50.46;101188.81;6192748;23;20467;-87
2021/07/21 18:08:03;;;;;;;9.63;6.75;;;21.80;92.80;;;23.23;50.67;101189.78;6070440;23;20095;-83
2021/07/21 18:11:28;;;;;;;10.30;7.35;;;21.60;93.50;;;23.15;51.13;101187.50;6019839;23;20512;-85
2021/07/21 18:14:00;;;;;;;10.73;7.07;;;21.60;94.40;;;23.14;52.76;101197.25;6040640;23;20022;-87
2021/07/21 18:17:04;;;;;;;11.65;7.10;;;21.50;97.70;;;23.05;53.51;101197.81;6050896;23;20082;-86
2021/07/21 18:19:31;;;;;;;11.25;7.20;;;21.50;99.30;;;22.96;53.63;101198.34;6057724;23;20019;-86
2021/07/21 18:21:57;;;;;;;9.20;6.28;;;21.40;99.90;;;22.85;53.47;101194.84;6054569;23;20007;-86
2021/07/21 18:24:23;;;;;;;12.02;6.70;;;21.30;99.90;;;22.72;53.56;101193.00;6271862;22;20003;-86
2021/07/21 18:26:52;;;;;;;12.07;8.05;;;21.30;99.90;;;22.62;53.90;101194.75;6292867;22;20010;-83
2021/07/21 18:29:18;;;;;;;9.32;6.90;;;21.10;99.90;;;22.55;54.44;101189.13;6286296;22;20060;-86
2021/07/21 18:31:44;;;;;;;11.90;6.90;;;21.10;99.90;;;22.47;54.86;101196.16;6288385;22;20018;-86
2021/07/21 18:34:10;;;;;;;10.05;7.00;;;21.00;99.90;;;22.38;55.08;101193.81;6292492;22;20098;-86
2021/07/21 18:36:44;;;;;;;10.68;7.65;;;20.90;99.90;;;22.30;55.34;101191.50;6286866;22;20018;-84
2021/07/21 18:39:12;;;;;;;10.88;6.68;;;20.80;99.90;;;22.20;55.81;101193.25;6311828;22;20034;-86
2021/07/21 18:41:40;;;;;;;9.30;6.57;;;20.70;99.90;;;22.09;56.20;101186.06;6283681;22;20412;-85
2021/07/21 18:44:07;;;;;;;11.88;7.07;;;20.60;99.90;;;21.99;56.32;101191.44;6286537;22;19999;-88
2021/07/21 18:46:33;;;;;;;9.25;6.32;;;20.50;99.90;;;21.86;56.77;101187.50;6296864;22;20009;-88
2021/07/21 18:50:07;;;;;;;10.05;6.43;;;20.40;99.90;;;21.72;57.52;101189.69;6296950;22;20452;-89
2021/07/21 18:52:34;;;;;;;11.52;6.97;;;20.20;99.90;;;21.59;57.68;101186.56;6292150;22;20008;-87
2021/07/21 18:55:04;;;;;;;10.80;6.72;;;20.10;99.90;;;21.46;58.25;101189.13;6286929;22;20038;-87
2021/07/21 18:57:31;;;;;;;9.93;7.10;;;20.00;99.90;;;21.34;59.10;101183.13;6287255;22;20018;-87
2021/07/21 19:00:00;;;;;;;12.23;6.97;;;19.90;99.90;;;21.19;59.83;101184.50;6311911;22;20010;-88
2021/07/21 19:02:26;;;;;;;10.63;7.65;;;19.80;99.90;;;21.05;60.46;101188.22;6285843;22;20007;-88
2021/07/21 19:04:52;;;;;;;13.13;8.23;;;19.60;99.90;;;20.94;60.83;101184.63;6284765;22;20008;-87
2021/07/21 19:07:21;;;;;;;12.80;8.10;;;19.50;99.90;;;20.80;61.51;101182.69;6285540;22;20013;-85
2021/07/21 19:09:48;;;;;;;13.00;8.35;;;19.40;99.90;;;20.68;62.48;101188.84;6312303;22;20009;-89
2021/07/21 19:12:18;;;;;;;13.88;8.88;;;19.30;99.90;;;20.60;62.58;101186.47;6290202;22;20016;-88
2021/07/21 19:14:44;;;;;;;12.32;7.00;;;19.10;99.90;;;20.49;63.21;101186.50;6291448;22;20014;-86
2021/07/21 19:17:10;;;;;;;10.25;7.25;;;19.10;99.90;;;20.42;63.61;101181.69;6299219;22;20014;-84
2021/07/21 19:19:38;;;;;;;11.15;6.82;;;19.00;99.90;;;20.33;64.33;101183.34;6304629;22;20006;-85
2021/07/21 19:22:04;;;;;;;13.10;7.60;;;18.90;99.90;;;20.25;65.41;101188.22;6332512;22;20011;-84
2021/07/21 19:24:33;;;;;;;11.60;7.20;;;18.80;99.90;;;20.13;65.84;101182.97;6306373;22;19999;-86
2021/07/21 19:26:59;;;;;;;15.05;7.97;;;18.70;99.90;;;20.07;66.32;101184.63;6306590;22;20019;-85
2021/07/21 19:29:28;;;;;;;10.80;6.78;;;18.70;99.90;;;20.01;66.88;101189.09;6332311;22;20097;-84
2021/07/21 19:31:55;;;;;;;11.93;7.80;;;18.60;99.90;;;19.87;68.24;101187.09;6327466;22;20010;-85
2021/07/21 19:34:22;;;;;;;14.55;7.53;;;18.50;99.90;;;19.73;69.47;101181.47;6285456;22;20002;-85
2021/07/21 19:36:49;;;;;;;12.60;7.38;;;18.30;99.90;;;19.62;70.41;101182.72;6310992;22;20037;-87
2021/07/21 19:39:18;;;;;;;11.57;7.47;;;18.20;99.90;;;19.49;70.59;101185.16;6309978;22;20011;-84
2021/07/21 19:41:48;;;;;;;14.25;7.72;;;18.10;99.90;;;19.38;71.32;101195.66;6283773;22;20027;-86
2021/07/21 19:44:25;;;;;;;15.68;7.88;;;18.00;99.90;;;19.26;71.79;101199.72;6282520;22;20004;-88
2021/07/21 19:46:58;;;;;;;12.57;7.53;;;17.90;99.90;;;19.19;72.12;101196.06;6283431;22;20026;-85
2021/07/21 19:49:24;;;;;;;13.02;7.93;;;17.80;99.90;;;19.15;72.30;101201.72;6311215;22;20057;-89
2021/07/21 19:51:51;;;;;;;13.48;7.88;;;17.70;99.90;;;19.06;72.63;101200.50;6288264;22;20015;-84
2021/07/21 19:54:20;;;;;;;14.25;8.65;;;17.70;99.90;;;18.99;73.82;101200.47;6313841;22;20018;-84
2021/07/21 19:56:52;;;;;;;12.30;7.72;;;17.50;99.90;;;19.00;74.49;101202.94;6311144;22;20009;-87
2021/07/21 19:59:18;;;;;;;14.30;9.77;;;17.60;99.90;;;19.04;75.60;101208.59;6283688;22;20041;-88
2021/07/21 20:01:45;;;;;;;12.68;7.90;;;17.50;99.90;;;18.94;75.66;101208.16;6283873;22;20052;-87
2021/07/21 20:04:11;;;;;;;11.73;7.88;;;17.50;99.90;;;18.84;75.95;101211.78;6310445;22;20078;-85
2021/07/21 20:06:38;;;;;;;13.48;8.63;;;17.40;99.90;;;18.76;76.61;101214.97;6309716;22;20408;-83
2021/07/21 20:09:05;;;;;;;10.70;7.68;;;17.40;99.90;;;18.63;77.20;101210.91;6309929;22;20466;-87
2021/07/21 20:11:31;;;;;;;13.63;8.27;;;17.30;99.90;;;18.52;77.95;101213.72;6309293;22;20013;-88
2021/07/21 20:13:57;;;;;;;14.82;8.95;;;17.20;99.90;;;18.49;77.97;101208.00;6284699;22;20037;-88
2021/07/21 20:16:23;;;;;;;15.75;9.02;;;17.10;99.90;;;18.47;77.99;101216.88;6285212;22;20053;-88
2021/07/21 20:18:49;;;;;;;16.27;8.93;;;17.10;99.90;;;18.42;78.21;101214.44;6285273;22;20011;-88
2021/07/21 20:21:17;;;;;;;14.23;8.35;;;17.10;99.90;;;18.34;78.59;101215.63;6312178;22;20015;-86
2021/07/21 20:23:43;;;;;;;12.45;8.52;;;17.00;99.90;;;18.23;79.95;101220.44;6312444;22;19999;-88
2021/07/21 20:26:10;;;;;;;16.88;9.25;;;16.90;99.90;;;18.16;80.60;101221.19;6312054;22;20035;-87
2021/07/21 20:28:36;;;;;;;13.18;8.27;;;16.80;99.90;;;18.11;81.20;101213.06;6312521;22;20371;-85
2021/07/21 20:31:02;;;;;;;14.00;8.57;;;16.70;99.90;;;18.06;81.38;101221.94;6285532;22;20349;-88
2021/07/21 20:33:27;;;;;;;16.13;8.40;;;16.70;99.90;;;17.96;81.56;101219.88;6308636;22;20013;-82
2021/07/21 20:35:53;;;;;;;14.45;8.20;;;16.60;99.90;;;17.86;82.21;101218.59;6319459;22;20015;-87
2021/07/21 20:38:20;;;;;;;14.50;8.77;;;16.50;99.90;;;17.76;82.32;101219.34;6316152;22;20003;-87
2021/07/21 20:40:46;;;;;;;14.05;8.98;;;16.40;99.90;;;17.68;83.09;101219.69;6285349;22;20264;-88
2021/07/21 20:43:15;;;;;;;14.57;8.93;;;16.40;99.90;;;17.65;83.43;101218.47;6312307;22;20114;-85
2021/07/21 20:45:41;;;;;;;16.23;9.10;;;16.30;99.90;;;17.66;83.41;101217.25;6285808;22;20035;-87
2021/07/21 20:48:07;;;;;;;15.38;9.63;;;16.30;99.90;;;17.66;83.37;101217.25;6286886;22;20090;-86
2021/07/21 20:50:34;;;;;;;17.27;9.77;;;16.30;99.90;;;17.64;83.29;101211.19;6314509;22;20010;-86
2021/07/21 20:53:00;;;;;;;13.95;8.73;;;16.30;99.90;;;17.61;83.24;101217.63;6316263;22;20098;-86
2021/07/21 20:55:25;;;;;;;17.75;9.77;;;16.20;99.90;;;17.54;83.25;101206.22;6316292;22;20117;-86
2021/07/21 20:57:51;;;;;;;13.60;9.07;;;16.30;99.90;;;17.47;83.83;101211.81;6314785;22;20023;-86
2021/07/21 21:00:18;;;;;;;16.17;10.07;;;16.10;99.90;;;17.45;84.50;101211.41;6315272;22;20007;-86
2021/07/21 21:02:44;;;;;;;14.93;9.48;;;16.10;99.90;;;17.42;84.58;101208.56;6290336;22;20498;-88
2021/07/21 21:05:11;;;;;;;16.15;9.38;;;16.10;99.90;;;17.41;84.59;101204.91;6290693;22;20003;-88
2021/07/21 21:07:39;;;;;;;15.50;9.68;;;16.00;99.90;;;17.38;85.17;101205.69;6290973;22;20068;-85
2021/07/21 21:10:11;;;;;;;15.18;9.13;;;16.00;99.90;;;17.33;85.44;101211.72;6290978;22;20003;-85
2021/07/21 21:12:37;;;;;;;12.82;8.85;;;16.00;99.90;;;17.28;85.38;101221.34;6291297;22;20007;-86
2021/07/21 21:15:09;;;;;;;16.42;10.48;;;15.90;99.90;;;17.23;86.13;101216.06;6320692;22;20041;-85
2021/07/21 21:17:36;;;;;;;17.92;10.38;;;15.90;99.90;;;17.20;85.95;101221.69;6324772;22;20027;-88
2021/07/21 21:20:09;;;;;;;16.35;10.35;;;15.80;99.90;;;17.23;86.16;101218.09;6324071;22;20007;-87
2021/07/21 21:22:37;;;;;;;15.68;10.30;;;15.80;99.90;;;17.23;86.05;101221.72;6296409;22;20011;-86
2021/07/21 21:25:06;;;;;;;16.92;11.32;;;15.80;99.90;;;17.24;86.19;101226.16;6297218;22;20061;-88
2021/07/21 21:27:32;;;;;;;18.27;10.35;;;15.90;99.90;;;17.26;85.94;101228.59;6298201;22;20121;-86
2021/07/21 21:29:58;;;;;;;18.92;11.48;;;15.90;99.90;;;17.28;86.19;101223.34;6299963;22;20003;-85
2021/07/21 21:32:24;;;;;;;20.10;11.32;;;15.90;99.90;;;17.26;86.14;101234.25;6305151;22;20011;-85
2021/07/21 21:34:51;;;;;;;17.35;10.88;;;15.90;99.90;;;17.22;86.52;101222.91;6300572;22;20007;-85
2021/07/21 21:37:18;;;;;;;16.02;10.20;;;15.80;99.90;;;17.18;86.77;101227.69;6300465;22;20533;-86
2021/07/21 21:39:46;;;;;;;14.85;9.90;;;15.80;99.90;;;17.13;87.11;101228.06;6289383;22;20007;-87
2021/07/21 21:42:12;;;;;;;17.48;10.40;;;15.80;99.90;;;17.10;87.44;101226.03;6286565;22;20014;-87
2021/07/21 21:44:39;;;;;;;15.68;10.20;;;15.70;99.90;;;17.07;87.53;101226.81;6285696;22;20058;-86
2021/07/21 21:47:06;;;;;;;16.92;10.13;;;15.70;99.90;;;17.02;88.22;101227.16;6286003;22;20030;-87
2021/07/21 21:49:32;;;;;;;17.80;10.50;;;15.70;99.90;;;17.02;88.10;101221.50;6284375;22;20065;-87
2021/07/21 21:52:00;;;;;;;16.08;9.85;;;15.70;99.90;;;17.00;88.34;101232.38;6285194;22;20011;-87
2021/07/21 21:54:26;;;;;;;16.25;10.43;;;15.70;99.90;;;17.00;88.79;101223.91;6282915;22;20433;-85
2021/07/21 21:56:52;;;;;;;16.63;10.00;;;15.70;99.90;;;17.01;88.61;101222.72;6284273;22;20016;-85
2021/07/21 21:59:18;;;;;;;14.90;9.55;;;15.70;99.90;;;16.99;87.91;101225.09;6284390;22;20201;-88
2021/07/21 22:01:50;;;;;;;16.13;9.50;;;15.70;99.90;;;16.95;88.16;101223.47;6284487;22;20003;-87
2021/07/21 22:04:22;;;;;;;15.18;10.00;;;15.60;99.90;;;16.93;88.12;101221.00;6285016;22;20003;-87
2021/07/21 22:06:53;;;;;;;17.63;11.45;;;15.60;99.90;;;16.91;87.95;101216.97;6286440;22;20003;-86
2021/07/21 22:09:22;;;;;;;15.60;10.30;;;15.50;99.90;;;16.85;88.28;101222.97;6283836;22;20003;-86
2021/07/21 22:11:49;;;;;;;16.65;10.23;;;15.50;99.90;;;16.77;88.28;101220.44;6284841;22;20048;-87
2021/07/21 22:14:18;;;;;;;13.10;8.98;;;15.40;99.90;;;16.69;88.58;101213.94;6284960;22;20303;-86
2021/07/21 22:16:46;;;;;;;15.90;9.90;;;15.30;99.90;;;16.62;89.35;101211.03;6285173;22;20003;-87
2021/07/21 22:19:27;;;;;;;16.42;9.82;;;15.30;99.90;;;16.60;89.94;101218.25;6285094;22;20463;-85
2021/07/21 22:21:56;;;;;;;14.75;9.48;;;15.30;99.90;;;16.54;90.25;101223.38;6312767;22;20014;-87
2021/07/21 22:24:26;;;;;;;14.52;9.27;;;15.20;99.90;;;16.48;90.58;101224.91;6286134;22;20007;-85
2021/07/21 22:26:52;;;;;;;15.80;9.35;;;15.20;99.90;;;16.45;90.74;101225.69;6288266;22;20007;-86
2021/07/21 22:29:21;;;;;;;15.07;9.93;;;15.20;99.90;;;16.43;91.12;101225.25;6285322;22;20451;-87
2021/07/21 22:31:53;;;;;;;13.65;9.27;;;15.10;99.90;;;16.41;91.06;101221.22;6313530;22;20061;-88
2021/07/21 22:34:30;;;;;;;17.45;9.98;;;15.10;99.90;;;16.43;91.70;101224.44;6284791;22;20011;-85
2021/07/21 22:37:12;;;;;;;15.27;9.60;;;15.10;99.90;;;16.42;91.40;101220.00;6311176;22;20008;-85